Time;durP1;ratioP1;P1;durP2;ratioP2;P2;SDS_P1;SDS_P2;PMS_P1;PMS_P2;Temp;Humidity;BMP_temperature;BMP_pressure;BME280_temperature;BME280_humidity;BME280_pressure;Samples;Min_cycle;Max_cycle;Signal;HPM_P1;HPM_P2
2021/11/12 00:11:53;;;;;;;22.30;20.00;;;;;21.50;101143.00;;;;2078366;28;20676;-51
2021/11/12 00:12:46;;;;;;;21.45;19.20;;;;;21.40;101137.00;;;;2073421;28;20237;-52
2021/11/12 00:13:46;;;;;;;22.65;20.35;;;;;21.40;101140.00;;;;2073622;28;20685;-52
2021/11/12 00:14:48;;;;;;;23.80;20.30;;;;;21.40;101134.00;;;;2073156;28;20222;-51
2021/11/12 00:15:54;;;;;;;23.20;20.70;;;;;21.40;101125.00;;;;2071069;28;20309;-52
2021/11/12 00:16:55;;;;;;;23.17;20.85;;;;;21.40;101132.00;;;;2072172;28;20218;-52
2021/11/12 00:17:56;;;;;;;21.58;19.45;;;;;21.40;101129.00;;;;2075822;28;20218;-52
2021/11/12 00:18:56;;;;;;;22.30;19.83;;;;;21.40;101125.00;;;;2077220;28;20210;-51
2021/11/12 00:19:57;;;;;;;21.87;19.77;;;;;21.40;101123.00;;;;2075886;28;20224;-55
2021/11/12 00:20:59;;;;;;;21.80;19.73;;;;;21.40;101127.00;;;;2068802;28;20257;-52
2021/11/12 00:21:59;;;;;;;22.08;19.83;;;;;21.40;101125.00;;;;2076016;28;20682;-51
2021/11/12 00:23:00;;;;;;;22.00;19.80;;;;;21.40;101131.00;;;;2078523;28;20244;-51
2021/11/12 00:24:00;;;;;;;23.33;20.90;;;;;21.40;101123.00;;;;2077288;28;20737;-52
2021/11/12 00:25:02;;;;;;;20.33;18.40;;;;;21.40;101125.00;;;;2075807;28;20914;-52
2021/11/12 00:26:02;;;;;;;20.10;18.10;;;;;21.40;101123.00;;;;2078024;28;20287;-52
2021/11/12 00:27:04;;;;;;;21.63;19.53;;;;;21.40;101119.00;;;;2078115;28;20299;-52
2021/11/12 00:28:05;;;;;;;21.33;19.13;;;;;21.40;101117.00;;;;2078186;28;20220;-51
2021/11/12 00:29:08;;;;;;;21.77;19.57;;;;;21.40;101119.00;;;;2073627;28;20221;-51
2021/11/12 00:31:51;;;;;;;21.00;19.00;;;;;21.30;101119.00;;;;2068936;28;20237;-51
2021/11/12 00:33:06;;;;;;;21.45;19.35;;;;;21.30;101115.00;;;;2066310;28;20217;-52
2021/11/12 00:35:17;;;;;;;21.27;19.07;;;;;21.30;101117.00;;;;2078408;28;20216;-52
2021/11/12 00:36:43;;;;;;;19.85;17.75;;;;;21.30;101120.00;;;;2070066;28;20251;-51
2021/11/12 00:38:05;;;;;;;21.23;19.15;;;;;21.30;101111.00;;;;2071622;28;20228;-52
2021/11/12 00:40:13;;;;;;;20.87;18.70;;;;;21.30;101117.00;;;;2077854;28;20240;-52
2021/11/12 00:41:21;;;;;;;20.52;18.52;;;;;21.40;101118.00;;;;2077912;28;20228;-51
2021/11/12 00:42:28;;;;;;;19.55;17.70;;;;;21.30;101119.00;;;;2072405;28;20282;-52
2021/11/12 00:45:32;;;;;;;21.30;19.23;;;;;21.30;101132.00;;;;2076497;28;20209;-52
2021/11/12 00:46:39;;;;;;;19.80;18.00;;;;;21.30;101124.00;;;;2072356;28;20214;-51
2021/11/12 00:47:47;;;;;;;21.02;18.83;;;;;21.30;101127.00;;;;2074621;28;20629;-51
2021/11/12 00:48:56;;;;;;;19.30;17.40;;;;;21.30;101135.00;;;;2077548;28;20279;-52
2021/11/12 00:51:15;;;;;;;19.52;17.52;;;;;21.30;101126.00;;;;2077809;28;20209;-52
2021/11/12 00:52:28;;;;;;;19.60;17.70;;;;;21.30;101128.00;;;;2077768;28;20581;-52
2021/11/12 00:54:28;;;;;;;19.40;17.60;;;;;21.30;101117.00;;;;2076696;28;20689;-51
2021/11/12 00:55:29;;;;;;;18.93;17.07;;;;;21.30;101123.00;;;;2077127;28;20685;-52
2021/11/12 00:56:30;;;;;;;20.10;18.20;;;;;21.30;101122.00;;;;2077037;28;20216;-52
2021/11/12 00:57:30;;;;;;;19.13;17.33;;;;;21.30;101121.00;;;;2078188;28;20468;-52
2021/11/12 00:58:30;;;;;;;20.37;18.13;;;;;21.30;101119.00;;;;2078023;28;20209;-51
2021/11/12 00:59:31;;;;;;;19.07;17.33;;;;;21.30;101121.00;;;;2076739;28;20313;-52
2021/11/12 01:00:32;;;;;;;19.13;17.33;;;;;21.20;101124.00;;;;2077693;28;20213;-52
2021/11/12 01:01:35;;;;;;;18.70;16.90;;;;;21.20;101124.00;;;;2078044;28;20217;-51
2021/11/12 01:02:36;;;;;;;18.52;16.65;;;;;21.30;101125.00;;;;2078259;28;20589;-52
2021/11/12 01:03:36;;;;;;;18.02;16.42;;;;;21.30;101117.00;;;;2077962;28;20268;-53
2021/11/12 01:04:37;;;;;;;18.40;16.60;;;;;21.20;101116.00;;;;2078050;28;20713;-53
2021/11/12 01:05:37;;;;;;;18.23;16.33;;;;;21.20;101119.00;;;;2077785;28;20225;-52
2021/11/12 01:06:38;;;;;;;19.47;17.57;;;;;21.20;101124.00;;;;2077912;28;20729;-51
2021/11/12 01:07:39;;;;;;;18.13;16.38;;;;;21.20;101112.00;;;;2077861;28;20210;-52
2021/11/12 01:08:39;;;;;;;19.40;17.40;;;;;21.20;101129.00;;;;2077727;28;20213;-51
2021/11/12 01:09:40;;;;;;;19.10;16.97;;;;;21.20;101117.00;;;;2077313;28;20753;-52
2021/11/12 01:10:40;;;;;;;19.23;17.33;;;;;21.30;101111.00;;;;2077940;28;20818;-52
2021/11/12 01:11:42;;;;;;;18.00;16.30;;;;;21.20;101117.00;;;;2077960;28;20213;-52
2021/11/12 01:12:43;;;;;;;19.17;17.27;;;;;21.20;101117.00;;;;2072672;28;20756;-52
2021/11/12 01:13:44;;;;;;;16.97;15.40;;;;;21.20;101117.00;;;;2073133;28;20225;-51
2021/11/12 01:14:44;;;;;;;17.50;15.80;;;;;21.20;101107.00;;;;2072681;28;20233;-52
2021/11/12 01:15:45;;;;;;;18.23;16.43;;;;;21.20;101113.00;;;;2071831;28;20221;-53
2021/11/12 01:16:45;;;;;;;19.10;17.07;;;;;21.10;101106.00;;;;2070964;28;20245;-51
2021/11/12 01:17:46;;;;;;;18.17;16.50;;;;;21.20;101107.00;;;;2069599;28;20602;-52
2021/11/12 01:18:46;;;;;;;17.60;15.90;;;;;21.20;101103.00;;;;2069527;28;20264;-52
2021/11/12 01:19:47;;;;;;;17.10;15.47;;;;;21.20;101103.00;;;;2068164;28;20214;-52
2021/11/12 01:20:48;;;;;;;18.93;17.13;;;;;21.20;101109.00;;;;2070066;28;20305;-51
2021/11/12 01:21:49;;;;;;;16.57;15.00;;;;;21.20;101108.00;;;;2069841;28;20691;-52
2021/11/12 01:22:49;;;;;;;17.23;15.63;;;;;21.20;101093.00;;;;2067511;28;21156;-52
2021/11/12 01:23:50;;;;;;;17.83;16.03;;;;;21.20;101100.00;;;;2070472;28;20222;-52
2021/11/12 01:24:51;;;;;;;17.48;15.77;;;;;21.20;101095.00;;;;2070975;28;20624;-52
2021/11/12 01:25:51;;;;;;;18.30;16.57;;;;;21.20;101101.00;;;;2071337;28;20240;-52
2021/11/12 01:26:51;;;;;;;17.23;15.47;;;;;21.20;101100.00;;;;2076616;28;20694;-51
2021/11/12 01:27:52;;;;;;;17.73;16.03;;;;;21.10;101099.00;;;;2079530;28;20320;-52
2021/11/12 01:28:53;;;;;;;15.80;14.30;;;;;21.10;101087.00;;;;2078531;28;20216;-52
2021/11/12 01:29:54;;;;;;;16.60;15.10;;;;;21.20;101091.00;;;;2078745;28;20732;-52
2021/11/12 01:30:54;;;;;;;16.33;14.73;;;;;21.20;101088.00;;;;2078893;28;20641;-52
2021/11/12 01:31:55;;;;;;;16.30;14.60;;;;;21.10;101094.00;;;;2079605;28;20302;-52
2021/11/12 01:32:55;;;;;;;17.33;15.63;;;;;21.10;101087.00;;;;2077220;28;20246;-53
2021/11/12 01:33:57;;;;;;;16.80;15.10;;;;;21.10;101077.00;;;;2078779;28;20669;-53
2021/11/12 01:34:59;;;;;;;16.95;15.35;;;;;21.20;101075.00;;;;2071154;28;20221;-51
2021/11/12 01:36:09;;;;;;;15.30;13.80;;;;;21.10;101082.00;;;;2071213;28;20325;-52
2021/11/12 01:37:09;;;;;;;15.90;14.40;;;;;21.10;101080.00;;;;2071051;28;20297;-53
2021/11/12 01:38:10;;;;;;;16.80;15.03;;;;;21.10;101085.00;;;;2071446;28;20574;-51
2021/11/12 01:39:19;;;;;;;15.67;14.17;;;;;21.10;101082.00;;;;2070714;28;20727;-51
2021/11/12 01:40:25;;;;;;;16.42;14.70;;;;;21.10;101082.00;;;;2066971;28;20217;-52
2021/11/12 01:41:26;;;;;;;14.95;13.40;;;;;21.10;101076.00;;;;2079511;28;20213;-52
2021/11/12 01:43:58;;;;;;;14.83;13.50;;;;;21.10;101072.00;;;;2073876;28;20228;-52
2021/11/12 01:44:38;;;;;;;14.52;13.02;;;;;21.10;101072.00;;;;2068822;28;20295;-52
2021/11/12 01:47:25;;;;;;;18.15;12.48;;;;;21.00;101065.00;;;;2059030;28;20222;-52
2021/11/12 01:49:49;;;;;;;14.73;13.15;;;;;21.10;101061.00;;;;2070355;28;20225;-51
2021/11/12 01:50:58;;;;;;;13.85;12.45;;;;;21.10;101052.00;;;;2071130;28;20838;-52
2021/11/12 01:52:15;;;;;;;13.77;12.35;;;;;21.10;101060.00;;;;2070434;28;20245;-52
2021/11/12 01:53:25;;;;;;;13.50;12.13;;;;;21.10;101059.00;;;;2070495;28;20287;-52
2021/11/12 01:56:44;;;;;;;12.27;11.07;;;;;21.00;101045.00;;;;2079319;28;20233;-51
2021/11/12 01:57:57;;;;;;;13.15;10.80;;;;;21.00;101050.00;;;;2079459;28;20682;-51
2021/11/12 02:00:08;;;;;;;11.93;10.82;;;;;21.00;101051.00;;;;2079145;28;20221;-52
2021/11/12 02:01:08;;;;;;;11.20;10.20;;;;;21.00;101050.00;;;;2079346;28;20291;-52
2021/11/12 02:02:09;;;;;;;11.70;10.70;;;;;21.00;101043.00;;;;2078914;28;20213;-53
2021/11/12 02:03:09;;;;;;;11.40;10.33;;;;;21.00;101030.00;;;;2079347;28;20213;-52
2021/11/12 02:04:10;;;;;;;12.80;11.40;;;;;21.00;101033.00;;;;2079796;28;20686;-52
2021/11/12 02:05:11;;;;;;;11.20;10.10;;;;;21.00;101039.00;;;;2079847;28;20247;-53
2021/11/12 02:06:14;;;;;;;11.77;10.47;;;;;21.00;101037.00;;;;2079649;28;20953;-51
2021/11/12 02:07:15;;;;;;;11.60;10.48;;;;;21.00;101039.00;;;;2079351;28;20597;-51
2021/11/12 02:08:15;;;;;;;12.50;9.40;;;;;21.00;101032.00;;;;2078862;28;20213;-51
2021/11/12 02:09:18;;;;;;;11.10;10.10;;;;;21.00;101033.00;;;;2078224;28;20213;-51
2021/11/12 02:10:21;;;;;;;10.75;9.75;;;;;21.00;101035.00;;;;2079299;28;20218;-52
2021/11/12 02:11:22;;;;;;;11.13;10.05;;;;;21.00;101035.00;;;;2079789;28;20225;-52
2021/11/12 02:12:27;;;;;;;11.50;10.47;;;;;21.00;101037.00;;;;2069728;28;20759;-51
2021/11/12 02:13:27;;;;;;;10.30;9.30;;;;;21.00;101033.00;;;;2076200;28;20687;-51
2021/11/12 02:14:29;;;;;;;11.17;10.17;;;;;21.00;101029.00;;;;2078315;28;20202;-52
2021/11/12 02:15:30;;;;;;;9.82;8.85;;;;;21.00;101037.00;;;;2074007;28;20746;-51
2021/11/12 02:16:35;;;;;;;11.27;10.18;;;;;21.00;101042.00;;;;2072896;28;20281;-52
2021/11/12 02:17:38;;;;;;;10.65;9.65;;;;;21.00;101038.00;;;;2065537;28;20261;-51
2021/11/12 02:18:41;;;;;;;10.82;9.82;;;;;21.00;101029.00;;;;2073194;28;20687;-51
2021/11/12 02:19:55;;;;;;;9.70;8.73;;;;;21.00;101029.00;;;;2085941;28;20229;-52
2021/11/12 02:22:13;;;;;;;10.02;9.10;;;;;21.00;101032.00;;;;2078673;28;20221;-52
2021/11/12 02:23:13;;;;;;;10.00;9.00;;;;;21.00;101036.00;;;;2078476;28;20213;-51
2021/11/12 02:24:15;;;;;;;10.80;9.70;;;;;21.00;101033.00;;;;2079191;28;20308;-51
2021/11/12 02:25:25;;;;;;;9.85;8.95;;;;;21.00;101029.00;;;;2079185;28;20214;-51
2021/11/12 02:26:27;;;;;;;9.38;8.52;;;;;21.00;101033.00;;;;2076653;28;20209;-51
2021/11/12 02:27:36;;;;;;;9.25;8.45;;;;;21.00;101033.00;;;;2078852;28;20699;-51
2021/11/12 02:28:42;;;;;;;8.93;7.57;;;;;21.00;101030.00;;;;2078931;28;20244;-51
2021/11/12 02:29:54;;;;;;;9.07;8.27;;;;;21.00;101029.00;;;;2078443;28;20226;-51
2021/11/12 02:30:55;;;;;;;9.18;8.27;;;;;21.00;101020.00;;;;2078481;28;20271;-52
2021/11/12 02:31:55;;;;;;;10.00;8.33;;;;;21.00;101024.00;;;;2079184;28;20418;-52
2021/11/12 02:33:07;;;;;;;8.50;7.70;;;;;20.90;101026.00;;;;2079050;28;20245;-51
2021/11/12 02:34:10;;;;;;;8.40;7.60;;;;;21.00;101025.00;;;;2079142;28;20697;-52
2021/11/12 02:35:10;;;;;;;9.38;8.50;;;;;21.00;101016.00;;;;2079052;28;20214;-52
2021/11/12 02:36:12;;;;;;;8.87;7.97;;;;;21.00;101022.00;;;;2079104;28;20288;-51
2021/11/12 02:37:13;;;;;;;7.97;7.28;;;;;20.90;101023.00;;;;2078733;28;20284;-52
2021/11/12 02:38:13;;;;;;;10.97;7.47;;;;;20.90;101018.00;;;;2077360;28;20271;-51
2021/11/12 02:39:14;;;;;;;8.10;7.30;;;;;20.90;101015.00;;;;2078590;28;20460;-51
2021/11/12 02:40:15;;;;;;;9.33;8.43;;;;;21.00;101021.00;;;;2079615;28;20263;-52
2021/11/12 02:41:15;;;;;;;8.33;7.50;;;;;21.00;101022.00;;;;2079417;28;20459;-52
2021/11/12 02:42:16;;;;;;;7.97;7.23;;;;;20.90;101021.00;;;;2078839;28;20371;-52
2021/11/12 02:43:17;;;;;;;8.20;7.40;;;;;20.90;101012.00;;;;2074665;28;20222;-52
2021/11/12 02:44:19;;;;;;;7.70;6.93;;;;;20.90;101016.00;;;;2075124;28;20254;-52
2021/11/12 02:45:19;;;;;;;8.93;8.13;;;;;20.90;101023.00;;;;2076674;28;20293;-52
2021/11/12 02:46:23;;;;;;;8.10;7.30;;;;;20.90;101023.00;;;;2074024;28;20211;-52
2021/11/12 02:47:23;;;;;;;8.07;7.32;;;;;20.80;101020.00;;;;2076870;28;20823;-51
2021/11/12 02:48:24;;;;;;;6.90;6.30;;;;;20.90;101024.00;;;;2078610;28;20209;-51
2021/11/12 02:49:24;;;;;;;6.90;6.30;;;;;20.90;101021.00;;;;2077102;28;20616;-51
2021/11/12 02:50:24;;;;;;;8.20;7.50;;;;;20.90;101015.00;;;;2079211;28;20268;-51
2021/11/12 02:51:28;;;;;;;7.43;6.73;;;;;20.90;101024.00;;;;2078774;28;20217;-57
2021/11/12 02:52:28;;;;;;;7.40;6.70;;;;;20.90;101022.00;;;;2077169;28;20205;-51
2021/11/12 02:53:29;;;;;;;7.07;6.47;;;;;20.90;101010.00;;;;2079569;28;20209;-52
2021/11/12 02:54:30;;;;;;;6.87;6.17;;;;;20.90;101010.00;;;;2079511;28;20213;-52
2021/11/12 02:55:31;;;;;;;7.25;6.63;;;;;20.90;101012.00;;;;2076677;28;20229;-52
2021/11/12 02:56:32;;;;;;;7.00;6.17;;;;;20.90;101007.00;;;;2071327;28;20555;-52
2021/11/12 02:57:35;;;;;;;7.05;6.45;;;;;20.90;101005.00;;;;2070114;28;20247;-51
2021/11/12 02:58:38;;;;;;;7.63;6.97;;;;;20.80;101006.00;;;;2070439;28;20271;-52
2021/11/12 02:59:39;;;;;;;6.68;6.10;;;;;20.80;101010.00;;;;2069712;28;20218;-52
2021/11/12 03:00:40;;;;;;;7.87;7.10;;;;;20.90;100998.00;;;;2070213;28;20579;-52
2021/11/12 03:01:45;;;;;;;6.72;6.13;;;;;20.90;101000.00;;;;2070454;28;20540;-52
2021/11/12 03:02:46;;;;;;;7.35;6.65;;;;;20.80;100999.00;;;;2070568;28;20828;-52
2021/11/12 03:03:46;;;;;;;6.73;6.20;;;;;20.90;100993.00;;;;2071021;28;20256;-52
2021/11/12 03:04:47;;;;;;;6.17;5.63;;;;;20.90;100996.00;;;;2070626;28;20223;-52
2021/11/12 03:05:47;;;;;;;6.70;6.10;;;;;20.90;100991.00;;;;2074329;28;20214;-52
2021/11/12 03:06:48;;;;;;;6.63;6.03;;;;;20.90;100989.00;;;;2070153;28;20217;-52
2021/11/12 03:07:48;;;;;;;6.50;5.90;;;;;20.90;100990.00;;;;2068060;28;20210;-52
2021/11/12 03:08:49;;;;;;;5.70;5.20;;;;;20.90;100990.00;;;;2069825;28;20511;-52
2021/11/12 03:09:50;;;;;;;6.50;5.90;;;;;20.90;100988.00;;;;2070781;28;20218;-52
2021/11/12 03:10:53;;;;;;;6.40;5.80;;;;;20.80;100983.00;;;;2071161;28;20210;-52
2021/11/12 03:11:54;;;;;;;6.43;5.85;;;;;20.80;100990.00;;;;2070969;28;20221;-51
2021/11/12 03:12:54;;;;;;;6.50;5.90;;;;;20.80;100981.00;;;;2070841;28;20214;-51
2021/11/12 03:13:55;;;;;;;6.20;5.60;;;;;20.80;100983.00;;;;2071386;28;20210;-51
2021/11/12 03:14:55;;;;;;;6.77;6.17;;;;;20.80;100980.00;;;;2071833;28;20228;-51
2021/11/12 03:15:56;;;;;;;5.63;5.13;;;;;20.80;100982.00;;;;2071418;28;20210;-51
2021/11/12 03:16:56;;;;;;;6.80;5.83;;;;;20.80;100982.00;;;;2070953;28;20237;-52
2021/11/12 03:17:57;;;;;;;6.13;5.53;;;;;20.80;100980.00;;;;2069932;28;20228;-52
2021/11/12 03:18:58;;;;;;;6.43;5.82;;;;;20.80;100977.00;;;;2069850;28;20308;-51
2021/11/12 03:19:58;;;;;;;6.63;5.70;;;;;20.80;100983.00;;;;2073930;28;20217;-53
2021/11/12 03:21:01;;;;;;;6.30;5.80;;;;;20.80;100985.00;;;;2077531;28;21212;-51
2021/11/12 03:22:07;;;;;;;6.45;5.85;;;;;20.80;100984.00;;;;2077144;28;20217;-52
2021/11/12 03:23:13;;;;;;;5.78;5.28;;;;;20.80;100981.00;;;;2075571;28;20216;-52
2021/11/12 03:24:27;;;;;;;6.60;5.97;;;;;20.80;100982.00;;;;2071633;28;20242;-51
2021/11/12 03:25:42;;;;;;;7.10;5.80;;;;;20.80;100982.00;;;;2071606;28;20678;-51
2021/11/12 03:28:01;;;;;;;5.43;5.00;;;;;20.80;100977.00;;;;2070395;28;20199;-52
2021/11/12 04:00:40;;;;;;;5.47;4.97;;;;;20.60;100968.00;;;;2078112;28;20217;-52
2021/11/12 04:04:26;;;;;;;6.03;5.43;;;;;20.60;100964.00;;;;2076113;28;20213;-50
2021/11/12 04:05:58;;;;;;;5.20;4.75;;;;;20.60;100966.00;;;;2070699;28;20218;-51
2021/11/12 04:19:05;;;;;;;4.30;3.90;;;;;20.60;100951.00;;;;2078243;28;20566;-51
2021/11/12 04:42:08;;;;;;;4.78;4.28;;;;;20.60;100947.00;;;;2072276;28;21302;-51
2021/11/12 05:12:26;;;;;;;4.97;4.47;;;;;20.50;100933.00;;;;2078753;28;20213;-52
2021/11/12 05:43:38;;;;;;;3.70;3.40;;;;;20.40;100896.00;;;;2076138;28;20631;-52
2021/11/12 05:45:31;;;;;;;5.90;5.40;;;;;20.40;100887.00;;;;2079791;28;20214;-51
2021/11/12 05:46:21;;;;;;;5.40;4.90;;;;;20.40;100882.00;;;;2076260;28;20244;-51
2021/11/12 05:55:05;;;;;;;5.60;5.10;;;;;20.30;100871.00;;;;2073440;28;20246;-52
2021/11/12 05:55:08;;;;;;;6.20;5.60;;;;;20.30;100861.00;;;;2071340;28;20214;-50
2021/11/12 05:56:08;;;;;;;5.10;4.60;;;;;20.30;100863.00;;;;2071651;28;20210;-51
2021/11/12 05:57:09;;;;;;;5.50;5.00;;;;;20.30;100857.00;;;;2071587;28;20203;-51
2021/11/12 05:58:09;;;;;;;4.80;4.40;;;;;20.30;100857.00;;;;2068280;28;20218;-50
2021/11/12 05:59:13;;;;;;;4.93;4.53;;;;;20.30;100837.00;;;;2070551;28;20297;-51
2021/11/12 06:00:15;;;;;;;6.10;4.90;;;;;20.30;100853.00;;;;2069081;28;20224;-51
2021/11/12 06:01:15;;;;;;;6.10;5.60;;;;;20.30;100850.00;;;;2071453;28;20271;-51
2021/11/12 06:02:16;;;;;;;5.93;5.33;;;;;20.30;100853.00;;;;2071801;28;20210;-52
2021/11/12 06:03:17;;;;;;;5.40;4.90;;;;;20.30;100852.00;;;;2071021;28;20694;-51
2021/11/12 06:04:17;;;;;;;5.93;5.43;;;;;20.30;100849.00;;;;2071203;28;20488;-52
2021/11/12 06:05:18;;;;;;;6.97;5.60;;;;;20.40;100846.00;;;;2071031;28;20672;-52
2021/11/12 06:06:19;;;;;;;6.07;5.47;;;;;20.40;100846.00;;;;2071202;28;20238;-51
2021/11/12 06:07:19;;;;;;;4.87;4.47;;;;;20.40;100843.00;;;;2071296;28;20461;-51
2021/11/12 06:08:19;;;;;;;6.00;5.40;;;;;20.40;100837.00;;;;2068102;28;20221;-51
2021/11/12 06:09:21;;;;;;;6.50;5.57;;;;;20.40;100837.00;;;;2069344;28;20706;-51
2021/11/12 06:10:22;;;;;;;5.80;5.30;;;;;20.40;100834.00;;;;2070640;28;20558;-51
2021/11/12 06:11:23;;;;;;;5.73;5.23;;;;;20.50;100834.00;;;;2071036;28;20240;-51
2021/11/12 06:12:26;;;;;;;5.93;5.32;;;;;20.50;100831.00;;;;2071019;28;20694;-50
2021/11/12 06:13:27;;;;;;;6.28;5.53;;;;;20.40;100829.00;;;;2068003;28;20232;-52
2021/11/12 06:14:27;;;;;;;9.30;5.17;;;;;20.40;100830.00;;;;2069435;28;20221;-50
2021/11/12 06:15:27;;;;;;;6.37;5.13;;;;;20.50;100834.00;;;;2070859;28;20218;-52
2021/11/12 06:16:28;;;;;;;6.07;4.57;;;;;20.60;100820.00;;;;2076396;28;20214;-52
2021/11/12 06:17:28;;;;;;;6.50;4.70;;;;;20.70;100818.00;;;;2078473;28;20251;-51
2021/11/12 06:18:29;;;;;;;5.33;4.83;;;;;20.70;100815.00;;;;2072377;28;20217;-51
2021/11/12 06:19:30;;;;;;;6.40;5.30;;;;;20.70;100818.00;;;;2076700;28;20218;-51
2021/11/12 06:20:30;;;;;;;8.00;4.40;;;;;20.70;100812.00;;;;2078331;28;20457;-52
2021/11/12 06:21:31;;;;;;;10.80;4.20;;;;;20.80;100812.00;;;;2077697;28;20697;-52
2021/11/12 06:22:31;;;;;;;5.90;4.57;;;;;20.80;100818.00;;;;2072635;28;20230;-51
2021/11/12 06:23:31;;;;;;;6.60;4.57;;;;;20.80;100808.00;;;;2069597;28;20230;-51
2021/11/12 06:24:32;;;;;;;6.37;3.57;;;;;20.90;100803.00;;;;2071340;28;20297;-51
2021/11/12 06:25:32;;;;;;;4.70;4.10;;;;;20.90;100797.00;;;;2071597;28;20268;-52
2021/11/12 06:26:33;;;;;;;6.80;3.90;;;;;20.90;100808.00;;;;2078701;28;20761;-52
2021/11/12 06:27:34;;;;;;;4.53;3.40;;;;;20.90;100730.00;;;;2079255;28;20217;-51
2021/11/12 06:28:34;;;;;;;5.05;4.55;;;;;20.90;100792.00;;;;2079064;28;20222;-51
2021/11/12 06:29:34;;;;;;;5.03;3.70;;;;;20.90;100797.00;;;;2077452;28;20248;-51
2021/11/12 06:30:35;;;;;;;3.70;3.07;;;;;20.90;100795.00;;;;2079072;28;20295;-51
2021/11/12 06:31:35;;;;;;;3.00;2.70;;;;;20.80;100797.00;;;;2073120;28;20221;-52
2021/11/12 06:32:36;;;;;;;4.00;3.70;;;;;20.90;100798.00;;;;2072121;28;20225;-51
2021/11/12 06:33:36;;;;;;;4.10;3.70;;;;;20.90;100805.00;;;;2077104;28;20213;-52
2021/11/12 06:34:37;;;;;;;6.73;3.63;;;;;20.90;100801.00;;;;2071743;28;20217;-51
2021/11/12 06:35:37;;;;;;;3.67;2.80;;;;;20.90;100804.00;;;;2070267;28;20225;-56
2021/11/12 06:36:38;;;;;;;3.37;3.03;;;;;20.90;100799.00;;;;2070763;28;20602;-57
2021/11/12 06:37:38;;;;;;;3.17;2.97;;;;;20.90;100797.00;;;;2070291;28;20223;-52
2021/11/12 06:38:38;;;;;;;3.50;3.20;;;;;20.90;100798.00;;;;2067570;28;20233;-52
2021/11/12 06:39:39;;;;;;;4.63;3.60;;;;;21.00;100790.00;;;;2069833;28;20300;-52
2021/11/12 06:40:39;;;;;;;3.60;3.27;;;;;21.00;100790.00;;;;2070913;28;20210;-52
2021/11/12 06:41:54;;;;;;;3.63;3.00;;;;;21.00;100793.00;;;;2070743;28;20569;-52
2021/11/12 06:43:18;;;;;;;4.63;3.70;;;;;21.00;100791.00;;;;2071065;28;20311;-50
2021/11/12 06:50:23;;;;;;;4.10;3.30;;;;;21.00;100775.00;;;;2079493;28;20245;-52
2021/11/12 06:51:24;;;;;;;3.55;3.25;;;;;21.00;100773.00;;;;2079641;28;21076;-52
2021/11/12 06:52:25;;;;;;;4.03;3.70;;;;;21.10;100788.00;;;;2077054;28;20220;-50
2021/11/12 06:53:26;;;;;;;3.78;3.25;;;;;21.10;100775.00;;;;2068711;28;20276;-52
2021/11/12 06:54:27;;;;;;;4.23;3.77;;;;;21.10;100760.00;;;;2068647;28;20301;-51
2021/11/12 06:55:27;;;;;;;3.45;3.17;;;;;21.10;100763.00;;;;2070078;28;20209;-52
2021/11/12 06:56:28;;;;;;;3.93;3.50;;;;;21.10;100766.00;;;;2071300;28;20594;-51
2021/11/12 06:57:29;;;;;;;4.07;3.73;;;;;21.10;100761.00;;;;2064510;28;20218;-52
2021/11/12 06:58:29;;;;;;;4.10;3.70;;;;;21.10;100763.00;;;;2070676;28;20210;-51
2021/11/12 06:59:30;;;;;;;3.97;3.67;;;;;21.10;100762.00;;;;2069656;28;20280;-51
2021/11/12 07:00:30;;;;;;;6.03;5.43;;;;;21.10;100762.00;;;;2070986;28;20683;-52
2021/11/12 07:01:30;;;;;;;6.40;5.80;;;;;21.10;100758.00;;;;2070853;28;20571;-52
2021/11/12 07:02:31;;;;;;;5.50;5.00;;;;;21.10;100751.00;;;;2070913;28;20252;-50
2021/11/12 07:03:32;;;;;;;6.97;5.77;;;;;21.10;100747.00;;;;2069234;28;20213;-52
2021/11/12 07:04:32;;;;;;;7.40;6.70;;;;;21.20;100753.00;;;;2071468;28;20217;-51
2021/11/12 07:05:33;;;;;;;14.03;12.20;;;;;21.20;100755.00;;;;2070954;28;20214;-51
2021/11/12 07:06:36;;;;;;;11.23;9.90;;;;;21.20;100751.00;;;;2070801;28;20214;-51
2021/11/12 07:07:37;;;;;;;15.55;12.95;;;;;21.20;100753.00;;;;2075279;28;20205;-52
2021/11/12 07:08:37;;;;;;;19.00;14.20;;;;;21.20;100755.00;;;;2079019;28;20617;-51
2021/11/12 07:09:39;;;;;;;26.87;21.37;;;;;21.20;100749.00;;;;2077659;28;20328;-52
2021/11/12 07:10:39;;;;;;;21.42;17.92;;;;;21.20;100758.00;;;;2078033;28;20601;-51
2021/11/12 07:11:40;;;;;;;32.27;26.47;;;;;21.20;100749.00;;;;2078304;28;20252;-52
2021/11/12 07:12:40;;;;;;;24.17;19.50;;;;;21.20;100750.00;;;;2078873;28;20213;-52
2021/11/12 07:13:41;;;;;;;30.37;24.80;;;;;21.20;100753.00;;;;2069098;28;20229;-52
2021/11/12 07:14:44;;;;;;;40.23;31.60;;;;;21.20;100748.00;;;;2070290;28;20683;-51
2021/11/12 07:15:45;;;;;;;36.05;29.08;;;;;21.20;100749.00;;;;2070596;28;20999;-51
2021/11/12 07:16:45;;;;;;;26.67;21.57;;;;;21.20;100759.00;;;;2070341;28;20301;-51
2021/11/12 07:17:46;;;;;;;43.83;35.63;;;;;21.20;100759.00;;;;2070937;28;20226;-50
2021/11/12 07:18:48;;;;;;;39.67;31.20;;;;;21.20;100758.00;;;;2066074;28;20221;-51
2021/11/12 07:19:48;;;;;;;26.10;20.65;;;;;21.30;100760.00;;;;2070274;28;20215;-51
2021/11/12 07:20:49;;;;;;;38.27;31.30;;;;;21.30;100759.00;;;;2077568;28;20217;-51
2021/11/12 07:21:51;;;;;;;23.73;19.25;;;;;21.30;100757.00;;;;2077947;28;20277;-51
2021/11/12 07:22:51;;;;;;;28.80;23.17;;;;;21.30;100753.00;;;;2078573;28;20856;-52
2021/11/12 07:23:53;;;;;;;46.73;37.33;;;;;21.30;100754.00;;;;2077719;28;20221;-51
2021/11/12 07:24:53;;;;;;;49.38;40.08;;;;;21.30;100766.00;;;;2077396;28;20270;-52
2021/11/12 07:25:54;;;;;;;41.83;34.47;;;;;21.30;100759.00;;;;2078529;28;20702;-51
2021/11/12 07:26:54;;;;;;;45.20;38.00;;;;;21.30;100761.00;;;;2077248;28;20636;-52
2021/11/12 07:27:55;;;;;;;51.90;42.43;;;;;21.30;100763.00;;;;2077265;28;20460;-50
2021/11/12 07:28:55;;;;;;;54.50;43.43;;;;;21.30;100762.00;;;;2068021;28;20734;-52
2021/11/12 07:29:56;;;;;;;52.20;40.87;;;;;21.30;100765.00;;;;2072656;28;20221;-51
2021/11/12 07:30:56;;;;;;;52.67;44.00;;;;;21.30;100761.00;;;;2070494;28;20683;-52
2021/11/12 07:31:58;;;;;;;52.63;42.60;;;;;21.30;100760.00;;;;2071663;28;20288;-51
2021/11/12 07:32:59;;;;;;;53.03;40.47;;;;;21.30;100751.00;;;;2078477;28;20209;-52
2021/11/12 07:34:00;;;;;;;48.67;39.70;;;;;21.30;100756.00;;;;2078200;28;20807;-52
2021/11/12 07:35:01;;;;;;;56.15;44.17;;;;;21.40;100743.00;;;;2076928;28;20464;-52
2021/11/12 07:36:08;;;;;;;50.10;40.67;;;;;21.40;100739.00;;;;2077629;28;20233;-52
2021/11/12 07:37:12;;;;;;;49.70;40.47;;;;;21.40;100725.00;;;;2074140;28;21216;-52
2021/11/12 07:38:17;;;;;;;62.88;52.08;;;;;21.30;100730.00;;;;2078167;28;20225;-51
2021/11/12 07:40:25;;;;;;;57.92;47.25;;;;;21.40;100716.00;;;;2078277;28;20220;-52
2021/11/12 07:43:15;;;;;;;59.28;48.10;;;;;21.40;100717.00;;;;2071513;28;20296;-51
2021/11/12 07:44:18;;;;;;;51.97;42.78;;;;;21.40;100713.00;;;;2069661;28;20222;-52
2021/11/12 07:45:30;;;;;;;59.25;47.70;;;;;21.40;100709.00;;;;2074273;28;20263;-52
2021/11/12 07:47:34;;;;;;;63.47;53.80;;;;;21.40;100721.00;;;;2078535;28;20340;-52
2021/11/12 07:48:35;;;;;;;67.20;53.97;;;;;21.40;100726.00;;;;2075630;28;20213;-51
2021/11/12 07:49:37;;;;;;;59.17;49.17;;;;;21.40;100740.00;;;;2076934;28;20296;-52
2021/11/12 07:50:38;;;;;;;64.88;51.95;;;;;21.40;100734.00;;;;2078173;28;20217;-51
2021/11/12 07:51:40;;;;;;;75.40;61.75;;;;;21.40;100739.00;;;;2077396;28;20259;-51
2021/11/12 07:52:41;;;;;;;69.82;55.53;;;;;21.50;100752.00;;;;2078382;28;20220;-51
2021/11/12 07:53:42;;;;;;;60.78;50.13;;;;;21.50;100751.00;;;;2076113;28;20266;-51
2021/11/12 07:54:42;;;;;;;63.33;53.80;;;;;21.50;100762.00;;;;2078102;28;20755;-51
2021/11/12 07:55:43;;;;;;;64.70;52.57;;;;;21.50;100763.00;;;;2077481;28;20682;-51
2021/11/12 07:56:44;;;;;;;68.10;55.93;;;;;21.50;100763.00;;;;2078202;28;20676;-51
2021/11/12 07:57:44;;;;;;;66.63;54.60;;;;;21.50;100730.00;;;;2078308;28;20217;-52
2021/11/12 07:58:45;;;;;;;62.93;51.67;;;;;21.50;100760.00;;;;2072521;28;20658;-51